createdAt,value
2019-02-14T00:03:55.584Z,102548.85
2019-02-14T00:09:01.007Z,102569.23
2019-02-14T00:14:07.781Z,102588.48
2019-02-14T00:19:13.083Z,102571.74
2019-02-14T00:24:18.501Z,102588.66
2019-02-14T00:29:23.953Z,102596.66
2019-02-14T00:34:29.312Z,102588.27
2019-02-14T00:39:34.769Z,102586.70
2019-02-14T00:44:40.058Z,102599.63
2019-02-14T00:49:45.235Z,102605.15
2019-02-14T00:54:50.875Z,102601.55
2019-02-14T00:59:56.028Z,102608.95
2019-02-14T01:05:01.504Z,102598.09
2019-02-14T01:10:07.744Z,102603.99
2019-02-14T01:15:15.875Z,102619.65
2019-02-14T01:20:21.228Z,102604.70
2019-02-14T01:25:26.687Z,102596.59
2019-02-14T01:30:32.058Z,102614.94
2019-02-14T01:35:41.932Z,102610.78
2019-02-14T01:40:44.394Z,102605.53
2019-02-14T01:45:49.777Z,102587.95
2019-02-14T01:50:55.442Z,102596.94
2019-02-14T01:56:00.582Z,102608.30
2019-02-14T02:01:05.852Z,102617.70
2019-02-14T02:06:11.367Z,102609.77
2019-02-14T02:11:17.268Z,102617.38
2019-02-14T02:16:22.489Z,102618.22
2019-02-14T02:21:28.257Z,102615.28
2019-02-14T02:26:33.662Z,102627.48
2019-02-14T02:31:39.177Z,102625.63
2019-02-14T02:36:44.369Z,102633.00
2019-02-14T02:41:49.636Z,102642.06
2019-02-14T03:28:33.360Z,102699.41
2019-02-14T03:33:39.003Z,102719.80
2019-02-14T03:38:44.486Z,102711.20
2019-02-14T03:43:50.101Z,102700.45
2019-02-14T03:48:55.414Z,102715.08
2019-02-14T03:54:01.005Z,102719.17
2019-02-14T03:59:06.315Z,102732.78
2019-02-14T04:04:11.596Z,102749.53
2019-02-14T04:09:17.051Z,102746.34
2019-02-14T04:14:22.527Z,102730.70
2019-02-14T04:19:27.877Z,102759.06
2019-02-14T04:24:33.434Z,102769.53
2019-02-14T04:29:38.905Z,102776.17
2019-02-14T04:34:44.120Z,102793.02
2019-02-14T04:39:49.791Z,102808.28
2019-02-14T04:44:54.939Z,102796.86
2019-02-14T04:50:00.736Z,102797.93
2019-02-14T04:55:08.765Z,102792.51
2019-02-14T05:00:15.768Z,102802.31
2019-02-14T05:05:22.150Z,102800.16
2019-02-14T05:10:27.498Z,102789.98
2019-02-14T05:15:32.751Z,102784.45
2019-02-14T05:20:38.629Z,102755.56
2019-02-14T05:25:44.601Z,102771.41
2019-02-14T05:30:49.855Z,102775.63
2019-02-14T05:35:55.212Z,102760.64
2019-02-14T05:41:00.783Z,102770.38
2019-02-14T05:46:06.095Z,102789.01
2019-02-14T05:51:11.482Z,102797.86
2019-02-14T05:56:17.057Z,102805.81
2019-02-14T06:01:22.738Z,102791.80
2019-02-14T06:06:28.106Z,102767.84
2019-02-14T06:11:33.858Z,102777.56
2019-02-14T06:16:39.222Z,102787.81
2019-02-14T06:21:44.788Z,102811.86
2019-02-14T06:26:50.145Z,102825.08
2019-02-14T06:31:55.300Z,102836.00
2019-02-14T06:37:09.277Z,102841.10
2019-02-14T06:42:08.067Z,102853.39
2019-02-14T06:47:13.494Z,102848.62
2019-02-14T06:52:18.775Z,102846.42
2019-02-14T06:57:24.040Z,102842.30
2019-02-14T07:02:29.584Z,102860.85
2019-02-14T07:07:35.057Z,102878.23
2019-02-14T07:12:40.423Z,102893.48
2019-02-14T07:17:45.894Z,102874.52
2019-02-14T07:22:51.289Z,102875.26
2019-02-14T07:27:56.603Z,102871.16
2019-02-14T07:33:02.005Z,102855.23
2019-02-14T07:38:07.303Z,102850.36
2019-02-14T07:43:12.914Z,102861.20
2019-02-14T07:48:17.999Z,102886.28
2019-02-14T07:53:23.061Z,102885.92
2019-02-14T07:58:28.270Z,102879.99
2019-02-14T08:03:33.495Z,102887.11
2019-02-14T08:08:38.960Z,102893.88
2019-02-14T08:13:44.286Z,102897.63
2019-02-14T08:18:49.656Z,102911.63
2019-02-14T08:23:55.012Z,102914.79
2019-02-14T08:29:00.325Z,102912.97
2019-02-14T08:34:05.849Z,102916.52
2019-02-14T08:39:11.074Z,102926.06
2019-02-14T08:44:16.274Z,102909.90
2019-02-14T08:49:21.745Z,102904.95
2019-02-14T08:54:27.071Z,102915.32
2019-02-14T08:59:32.323Z,102911.27
2019-02-14T09:04:37.585Z,102918.21
2019-02-14T09:09:42.871Z,102918.21
2019-02-14T09:14:50.050Z,102922.28
2019-02-14T09:19:55.716Z,102951.17
2019-02-14T09:25:01.074Z,102960.27
2019-02-14T09:30:11.707Z,102960.27
2019-02-14T09:35:17.300Z,102972.22
2019-02-14T09:40:22.758Z,102972.22
2019-02-14T09:45:28.030Z,102968.87
2019-02-14T09:50:33.295Z,102965.66
2019-02-14T09:55:39.109Z,102942.66
2019-02-14T10:00:44.702Z,102945.57
2019-02-14T10:05:50.097Z,102955.30
2019-02-14T10:10:55.322Z,102968.16
2019-02-14T10:16:00.866Z,102961.36
2019-02-14T10:21:06.570Z,102958.75
2019-02-14T10:26:11.717Z,102968.47
2019-02-14T10:31:16.971Z,102955.11
2019-02-14T10:36:22.291Z,102931.84
2019-02-14T10:41:29.296Z,102937.76
2019-02-14T10:46:35.709Z,102935.95
2019-02-14T10:51:41.383Z,102937.16
2019-02-14T10:56:47.979Z,102941.58
2019-02-14T11:01:53.330Z,102943.16
2019-02-14T11:06:58.685Z,102950.27
2019-02-14T11:12:04.367Z,102943.25
2019-02-14T11:17:10.142Z,102948.97
2019-02-14T11:22:16.234Z,102950.86
2019-02-14T11:27:21.382Z,102948.18
2019-02-14T11:32:26.607Z,102957.67
2019-02-14T11:37:31.647Z,102962.38
2019-02-14T11:42:36.764Z,102966.17
2019-02-14T11:47:42.223Z,102973.60
2019-02-14T11:52:47.540Z,102967.70
2019-02-14T11:57:52.957Z,102970.69
2019-02-14T12:02:58.271Z,102962.46
2019-02-14T12:08:03.615Z,102991.70
2019-02-14T12:13:09.008Z,102985.10
2019-02-14T12:18:14.224Z,102985.27
2019-02-14T12:23:19.682Z,102979.88
2019-02-14T12:28:25.181Z,102984.47
2019-02-14T12:33:30.419Z,102970.23
2019-02-14T12:38:35.551Z,102980.35
2019-02-14T12:43:40.894Z,102981.65
2019-02-14T12:48:46.562Z,102971.94
2019-02-14T12:53:51.830Z,102968.55
2019-02-14T12:58:57.606Z,102974.28
2019-02-14T13:04:02.881Z,102973.84
2019-02-14T13:09:19.269Z,102967.55
2019-02-14T13:14:15.434Z,102959.95
2019-02-14T13:19:20.990Z,102986.47
2019-02-14T13:24:26.344Z,102986.78
2019-02-14T13:29:31.728Z,102978.97
2019-02-14T13:34:36.925Z,102977.18
2019-02-14T13:39:41.982Z,102986.78
2019-02-14T13:44:48.399Z,102986.09
2019-02-14T13:49:53.555Z,102985.39
2019-02-14T13:54:58.799Z,102981.48
2019-02-14T14:00:19.027Z,102981.48
2019-02-14T14:05:24.376Z,102978.69
2019-02-14T14:10:29.623Z,102982.80
2019-02-14T14:15:34.988Z,102975.36
2019-02-14T14:20:40.211Z,102984.81
2019-02-14T14:25:45.505Z,102982.88
2019-02-14T14:30:51.276Z,102985.25
2019-02-14T14:35:56.552Z,102984.75
2019-02-14T14:41:01.883Z,102982.92
2019-02-14T14:46:11.547Z,102973.33
2019-02-14T14:51:17.101Z,102973.33
2019-02-14T14:56:22.466Z,102981.56
2019-02-14T15:01:27.555Z,102969.80
2019-02-14T15:06:32.866Z,102979.66
2019-02-14T15:11:38.223Z,102979.66
2019-02-14T15:16:43.898Z,102968.95
2019-02-14T15:21:49.248Z,102964.44
2019-02-14T15:26:54.411Z,102952.41
2019-02-14T15:31:59.788Z,102955.13
2019-02-14T15:37:05.456Z,102952.73
2019-02-14T15:42:10.812Z,102945.91
2019-02-14T15:47:16.058Z,102945.91
2019-02-14T15:52:21.534Z,102958.09
2019-02-14T15:57:27.686Z,102968.35
2019-02-14T16:02:33.228Z,102962.70
2019-02-14T16:07:39.575Z,102964.88
2019-02-14T16:12:45.937Z,102964.88
2019-02-14T16:17:51.181Z,102967.77
2019-02-14T16:22:56.432Z,102966.92
2019-02-14T16:28:01.795Z,102964.10
2019-02-14T16:33:07.161Z,102970.01
2019-02-14T16:38:14.023Z,102965.44
2019-02-14T16:43:19.260Z,102969.42
2019-02-14T16:48:24.518Z,102976.67
2019-02-14T16:53:29.919Z,102979.31
2019-02-14T16:58:35.203Z,102988.87
2019-02-14T17:03:40.623Z,102981.23
2019-02-14T17:08:45.888Z,102971.17
2019-02-14T17:13:52.516Z,102976.52
2019-02-14T17:18:57.843Z,102988.50
2019-02-14T17:24:03.396Z,102985.22
2019-02-14T17:29:08.899Z,102982.44
2019-02-14T17:34:14.318Z,102994.98
2019-02-14T17:39:19.584Z,102998.15
2019-02-14T17:44:24.953Z,102998.88
2019-02-14T17:49:30.197Z,103009.05
2019-02-14T17:54:35.963Z,103004.77
2019-02-14T17:59:41.064Z,102998.23
2019-02-14T18:04:46.391Z,102987.69
2019-02-14T18:09:51.505Z,102991.52
2019-02-14T18:14:56.784Z,102991.81
2019-02-14T18:20:01.948Z,102989.86
2019-02-14T18:25:11.182Z,102995.67
2019-02-14T18:30:16.435Z,103011.31
2019-02-14T18:35:21.883Z,103022.23
2019-02-14T18:40:27.277Z,103015.83
2019-02-14T18:45:32.519Z,103025.74
2019-02-14T18:50:37.767Z,103028.84
2019-02-14T18:55:43.130Z,103042.57
2019-02-14T19:00:48.670Z,103031.19
2019-02-14T19:05:54.332Z,103023.09
2019-02-14T19:10:59.738Z,103023.41
2019-02-14T19:16:05.383Z,103017.25
2019-02-14T19:21:11.671Z,103019.13
2019-02-14T19:26:16.921Z,103012.77
2019-02-14T19:31:22.384Z,102996.85
2019-02-14T19:36:27.962Z,102991.00
2019-02-14T19:41:33.421Z,102976.72
2019-02-14T19:46:38.668Z,102966.91
2019-02-14T19:51:43.921Z,102967.01
2019-02-14T19:56:49.137Z,102969.66
2019-02-14T20:01:54.439Z,102969.55
2019-02-14T20:06:59.924Z,102954.22
2019-02-14T20:12:05.449Z,102955.75
2019-02-14T20:17:11.117Z,102962.87
2019-02-14T20:22:16.593Z,102960.66
2019-02-14T20:27:22.143Z,102955.22
2019-02-14T20:34:55.695Z,102941.32
2019-02-14T20:40:01.107Z,102940.47
2019-02-14T20:45:10.952Z,102945.02
2019-02-14T20:50:16.454Z,102932.58
2019-02-14T20:55:26.511Z,102917.39
2019-02-14T21:00:33.761Z,102908.41
2019-02-14T21:05:38.816Z,102905.52
2019-02-14T21:10:44.825Z,102914.51
2019-02-14T21:15:50.314Z,102917.44
2019-02-14T21:20:55.582Z,102909.55
2019-02-14T21:26:00.890Z,102901.08
2019-02-14T21:31:07.251Z,102921.04
2019-02-14T21:36:12.339Z,102908.78
2019-02-14T21:41:17.710Z,102912.19
2019-02-14T21:46:22.985Z,102904.83
2019-02-14T21:51:28.108Z,102921.91
2019-02-14T21:56:33.213Z,102934.41
2019-02-14T22:01:38.468Z,102936.55
2019-02-14T22:06:43.708Z,102899.92
2019-02-14T22:11:48.785Z,102903.23
2019-02-14T22:16:54.037Z,102921.91
2019-02-14T22:21:59.665Z,102922.91
2019-02-14T22:27:05.147Z,102924.20
2019-02-14T22:32:10.603Z,102915.51
2019-02-14T22:37:16.035Z,102922.95
2019-02-14T22:42:21.638Z,102911.16
2019-02-14T22:47:26.880Z,102892.70
2019-02-14T22:52:32.110Z,102888.08
2019-02-14T22:57:37.520Z,102892.20
2019-02-14T23:02:42.859Z,102883.77
2019-02-14T23:07:48.502Z,102883.18
2019-02-14T23:12:56.087Z,102883.18
2019-02-14T23:18:00.897Z,102874.54
2019-02-14T23:23:07.096Z,102875.26
2019-02-14T23:28:12.318Z,102865.94
2019-02-14T23:33:17.570Z,102853.97
2019-02-14T23:38:22.934Z,102862.18
2019-02-14T23:43:28.288Z,102866.78
2019-02-14T23:48:33.566Z,102884.89
2019-02-14T23:53:38.999Z,102868.03
2019-02-14T23:58:44.480Z,102861.94
